Time;durP1;ratioP1;P1;durP2;ratioP2;P2;SDS_P1;SDS_P2;PMS_P1;PMS_P2;Temp;Humidity;BMP_temperature;BMP_pressure;BME280_temperature;BME280_humidity;BME280_pressure;Samples;Min_cycle;Max_cycle;Signal;HPM_P1;HPM_P2
2021/10/03 00:01:56;;;;;;;36.17;24.17;;;15.60;71.80;;;;;;5109152;28;20027;-71
2021/10/03 00:04:24;;;;;;;34.00;24.08;;;15.60;71.70;;;;;;5115156;28;20054;-70
2021/10/03 00:06:52;;;;;;;36.83;24.85;;;15.60;71.60;;;;;;5114630;27;20043;-72
2021/10/03 00:09:18;;;;;;;35.72;24.98;;;15.60;72.00;;;;;;5115199;28;20070;-69
2021/10/03 00:11:45;;;;;;;31.77;26.15;;;15.70;72.00;;;;;;5115148;28;20055;-68
2021/10/03 00:14:12;;;;;;;36.03;25.33;;;15.60;72.20;;;;;;5113358;28;20061;-72
2021/10/03 00:16:39;;;;;;;35.90;26.33;;;15.60;72.50;;;;;;5114554;28;20039;-69
2021/10/03 00:19:05;;;;;;;34.25;26.50;;;15.50;72.90;;;;;;5114008;27;20053;-70
2021/10/03 00:21:31;;;;;;;36.83;27.73;;;15.50;73.10;;;;;;5114744;28;20023;-70
2021/10/03 00:23:56;;;;;;;33.85;26.05;;;15.50;73.10;;;;;;5113000;28;20027;-70
2021/10/03 00:26:22;;;;;;;36.53;27.60;;;15.50;73.10;;;;;;5114552;28;20024;-69
2021/10/03 00:28:48;;;;;;;37.53;28.25;;;15.50;73.30;;;;;;5114843;28;20024;-66
2021/10/03 00:31:14;;;;;;;33.58;28.45;;;15.40;73.30;;;;;;5114399;28;20039;-71
2021/10/03 00:33:40;;;;;;;35.17;28.25;;;15.40;73.50;;;;;;5114438;28;20027;-70
2021/10/03 00:36:05;;;;;;;33.50;27.45;;;15.40;73.40;;;;;;5114007;28;20051;-71
2021/10/03 00:38:31;;;;;;;35.30;28.23;;;15.40;73.10;;;;;;5113481;28;20040;-71
2021/10/03 00:40:58;;;;;;;36.85;29.38;;;15.50;73.00;;;;;;5112778;28;20027;-70
2021/10/03 00:43:24;;;;;;;36.42;30.13;;;15.40;73.20;;;;;;5114068;28;20048;-70
2021/10/03 00:45:50;;;;;;;38.78;29.52;;;15.40;73.10;;;;;;5113308;27;20031;-68
2021/10/03 00:48:16;;;;;;;34.10;29.13;;;15.50;72.90;;;;;;5113958;28;20085;-71
2021/10/03 00:50:44;;;;;;;37.85;28.48;;;15.50;72.60;;;;;;5112911;28;20118;-70
2021/10/03 00:53:11;;;;;;;37.10;27.92;;;15.50;72.70;;;;;;5112277;28;20150;-71
2021/10/03 00:55:37;;;;;;;33.63;27.67;;;15.40;72.80;;;;;;5113547;28;20099;-69
2021/10/03 00:58:03;;;;;;;35.95;27.75;;;15.30;73.00;;;;;;5111918;28;20065;-69
2021/10/03 01:00:31;;;;;;;38.65;28.00;;;15.30;72.90;;;;;;5113414;28;20023;-70
2021/10/03 01:02:58;;;;;;;37.45;28.23;;;15.30;72.80;;;;;;5112268;28;20028;-69
2021/10/03 01:05:24;;;;;;;31.95;26.80;;;15.30;72.70;;;;;;5111923;28;20039;-69
2021/10/03 01:07:51;;;;;;;35.90;28.55;;;15.30;72.60;;;;;;5113972;28;20027;-68
2021/10/03 01:10:23;;;;;;;36.67;28.13;;;15.30;72.60;;;;;;5114221;28;20027;-69
2021/10/03 01:12:53;;;;;;;33.80;27.27;;;15.40;72.50;;;;;;5113926;27;20452;-70
2021/10/03 01:15:19;;;;;;;39.03;28.17;;;15.40;72.50;;;;;;5112799;28;20412;-69
2021/10/03 01:17:45;;;;;;;33.20;27.08;;;15.30;72.60;;;;;;5113604;28;20461;-70
2021/10/03 01:20:11;;;;;;;35.15;28.65;;;15.20;72.80;;;;;;5113193;27;20232;-70
2021/10/03 01:22:38;;;;;;;36.22;28.55;;;15.20;72.90;;;;;;5113999;27;20027;-71
2021/10/03 01:25:08;;;;;;;37.17;28.80;;;15.20;73.00;;;;;;5111830;28;20042;-68
2021/10/03 01:27:35;;;;;;;32.70;27.75;;;15.10;73.10;;;;;;5113646;28;20023;-69
2021/10/03 01:30:01;;;;;;;33.00;26.88;;;15.10;73.50;;;;;;5113572;27;20030;-70
2021/10/03 01:32:26;;;;;;;39.67;27.95;;;15.10;73.60;;;;;;5114123;28;20024;-70
2021/10/03 01:34:52;;;;;;;33.65;26.35;;;15.00;73.80;;;;;;5113271;28;20076;-64
2021/10/03 01:37:22;;;;;;;34.53;28.92;;;15.00;74.00;;;;;;5111953;28;20108;-71
2021/10/03 01:39:48;;;;;;;38.60;29.30;;;15.00;74.20;;;;;;5113595;28;20027;-69
2021/10/03 01:42:14;;;;;;;37.58;28.60;;;15.00;74.10;;;;;;5112538;28;20163;-71
2021/10/03 01:44:40;;;;;;;36.80;28.23;;;14.90;74.40;;;;;;5113588;28;20055;-70
2021/10/03 01:47:05;;;;;;;40.42;28.58;;;14.90;74.60;;;;;;5112579;28;20088;-70
2021/10/03 01:49:31;;;;;;;37.20;29.25;;;14.90;74.30;;;;;;5112172;28;20027;-70
2021/10/03 01:51:57;;;;;;;36.90;27.15;;;15.00;74.10;;;;;;5113125;28;20420;-70
2021/10/03 01:54:23;;;;;;;41.47;27.15;;;15.00;73.90;;;;;;5113405;28;20055;-73
2021/10/03 01:56:49;;;;;;;36.75;28.45;;;15.00;74.00;;;;;;5111972;28;20031;-71
2021/10/03 01:59:16;;;;;;;34.13;26.27;;;15.00;73.80;;;;;;5111703;28;20119;-71
2021/10/03 02:01:44;;;;;;;32.33;26.60;;;15.00;73.90;;;;;;5113171;28;20477;-73
2021/10/03 02:04:22;;;;;;;37.25;26.05;;;14.90;73.90;;;;;;5111637;28;20031;-71
2021/10/03 02:06:50;;;;;;;38.75;26.02;;;14.80;74.20;;;;;;5113269;28;20042;-72
2021/10/03 02:09:18;;;;;;;36.55;26.10;;;14.80;74.30;;;;;;5111495;28;20035;-72
2021/10/03 02:11:49;;;;;;;33.28;26.92;;;14.80;74.40;;;;;;5113240;28;20024;-71
2021/10/03 02:14:17;;;;;;;36.45;26.70;;;14.70;74.40;;;;;;5112377;28;20050;-72
2021/10/03 02:16:43;;;;;;;36.38;26.65;;;14.70;74.40;;;;;;5111400;28;20108;-72
2021/10/03 02:19:09;;;;;;;31.88;25.98;;;14.70;74.60;;;;;;5112545;28;20070;-72
2021/10/03 02:21:35;;;;;;;36.97;27.02;;;14.70;74.50;;;;;;5111620;28;20453;-72
2021/10/03 02:24:02;;;;;;;33.60;27.27;;;14.70;74.60;;;;;;5112849;28;20110;-71
2021/10/03 02:26:28;;;;;;;37.83;26.83;;;14.70;74.40;;;;;;5111748;28;20030;-72
2021/10/03 02:28:55;;;;;;;38.92;26.77;;;14.80;74.40;;;;;;5112748;28;20358;-72
2021/10/03 02:31:21;;;;;;;32.42;26.48;;;14.70;74.30;;;;;;5111164;28;20385;-70
2021/10/03 02:33:48;;;;;;;33.88;25.95;;;14.70;74.50;;;;;;5112652;28;20030;-71
2021/10/03 02:39:02;;;;;;;35.10;26.88;;;14.70;74.50;;;;;;5111384;28;20123;-69
2021/10/03 02:41:28;;;;;;;38.75;29.25;;;14.70;74.60;;;;;;5112258;28;20015;-69
2021/10/03 02:43:57;;;;;;;33.95;27.40;;;14.70;74.50;;;;;;5112512;28;20028;-71
2021/10/03 02:46:23;;;;;;;30.42;25.15;;;14.70;74.50;;;;;;5111102;28;20027;-71
2021/10/03 02:48:50;;;;;;;36.80;27.95;;;14.70;74.40;;;;;;5112740;28;20019;-72
2021/10/03 02:51:22;;;;;;;35.50;27.42;;;14.70;74.30;;;;;;5112189;28;20314;-69
2021/10/03 02:53:48;;;;;;;34.33;27.13;;;14.80;74.40;;;;;;5111425;28;20020;-70
2021/10/03 02:56:16;;;;;;;35.90;26.10;;;14.80;74.30;;;;;;5111770;28;20076;-72
2021/10/03 02:58:42;;;;;;;35.15;26.77;;;14.80;74.30;;;;;;5111299;28;20042;-71
2021/10/03 03:01:08;;;;;;;33.13;26.88;;;14.80;74.20;;;;;;5111912;28;20389;-71
2021/10/03 03:03:35;;;;;;;33.13;27.88;;;14.80;74.10;;;;;;5111041;28;20028;-70
2021/10/03 03:06:05;;;;;;;36.10;27.20;;;14.80;74.10;;;;;;5111383;28;20519;-70
2021/10/03 03:08:31;;;;;;;35.40;27.90;;;14.80;74.20;;;;;;5112480;28;20028;-71
2021/10/03 03:10:58;;;;;;;32.92;27.95;;;14.80;74.20;;;;;;5112350;28;20027;-71
2021/10/03 03:13:24;;;;;;;33.85;28.00;;;14.80;74.40;;;;;;5112460;28;20031;-71
2021/10/03 03:15:49;;;;;;;32.75;27.55;;;14.90;74.30;;;;;;5112294;28;20020;-71
2021/10/03 03:18:15;;;;;;;39.75;30.55;;;14.90;74.20;;;;;;5110422;28;20392;-71
2021/10/03 03:20:41;;;;;;;41.00;29.55;;;14.90;74.30;;;;;;5112683;28;20038;-72
2021/10/03 03:23:07;;;;;;;36.65;29.55;;;14.80;74.40;;;;;;5110558;28;20080;-70
2021/10/03 03:25:33;;;;;;;38.30;30.40;;;14.80;74.60;;;;;;5112036;28;20032;-70
2021/10/03 03:27:59;;;;;;;38.13;28.88;;;14.80;74.80;;;;;;5110545;28;20030;-69
2021/10/03 03:30:25;;;;;;;40.00;30.58;;;14.80;74.80;;;;;;5112344;28;20334;-68
2021/10/03 03:32:50;;;;;;;38.95;30.42;;;14.70;75.00;;;;;;5111936;28;20024;-71
2021/10/03 03:35:16;;;;;;;40.85;31.08;;;14.60;75.10;;;;;;5111482;28;20161;-70
2021/10/03 03:37:42;;;;;;;36.72;29.23;;;14.70;75.20;;;;;;5114603;28;20084;-70
2021/10/03 03:40:10;;;;;;;36.78;28.70;;;14.70;75.20;;;;;;5115262;28;20036;-67
2021/10/03 03:42:36;;;;;;;38.30;29.33;;;14.70;75.00;;;;;;5114376;28;20047;-69
2021/10/03 03:45:02;;;;;;;37.38;29.85;;;14.70;74.90;;;;;;5114307;28;20035;-69
2021/10/03 03:47:28;;;;;;;38.25;29.08;;;14.70;75.00;;;;;;5114238;28;20035;-69
2021/10/03 03:49:54;;;;;;;40.50;30.88;;;14.70;75.00;;;;;;5115863;28;20347;-70
2021/10/03 03:52:20;;;;;;;38.08;29.52;;;14.70;74.90;;;;;;5115041;28;20032;-70
2021/10/03 03:54:46;;;;;;;40.95;29.58;;;14.70;74.90;;;;;;5115746;28;20024;-71
2021/10/03 03:57:12;;;;;;;34.38;28.80;;;14.70;75.00;;;;;;5114525;28;20024;-70
2021/10/03 03:59:38;;;;;;;37.28;29.35;;;14.60;75.10;;;;;;5115842;28;20036;-71
2021/10/03 04:02:04;;;;;;;36.78;29.50;;;14.60;75.10;;;;;;5114883;28;20096;-69
2021/10/03 04:04:29;;;;;;;39.28;29.05;;;14.60;75.30;;;;;;5115677;28;20016;-71
2021/10/03 04:06:55;;;;;;;36.30;30.38;;;14.60;75.20;;;;;;5115311;28;20028;-70
2021/10/03 04:09:21;;;;;;;38.03;28.60;;;14.60;75.20;;;;;;5115540;28;20398;-70
2021/10/03 04:11:46;;;;;;;35.75;29.20;;;14.60;75.20;;;;;;5115167;28;20107;-71
2021/10/03 04:14:12;;;;;;;35.60;29.65;;;14.70;75.10;;;;;;5114862;28;20054;-70
2021/10/03 04:16:38;;;;;;;39.92;29.85;;;14.80;75.00;;;;;;5115161;28;20046;-71
2021/10/03 04:19:04;;;;;;;36.95;28.05;;;14.80;74.60;;;;;;5114596;28;20066;-69
2021/10/03 04:21:30;;;;;;;36.45;29.08;;;14.80;74.50;;;;;;5113956;28;20027;-71
2021/10/03 04:23:56;;;;;;;35.40;29.50;;;14.80;74.40;;;;;;5113998;28;20027;-71
2021/10/03 04:26:22;;;;;;;37.83;29.20;;;14.80;74.40;;;;;;5114241;28;20488;-71
2021/10/03 04:28:48;;;;;;;36.10;29.05;;;14.70;74.40;;;;;;5115277;28;20032;-70
2021/10/03 04:31:13;;;;;;;35.72;28.02;;;14.70;74.40;;;;;;5113333;28;20027;-69
2021/10/03 04:33:41;;;;;;;41.00;29.13;;;14.70;74.50;;;;;;5115014;28;20454;-70
2021/10/03 04:36:09;;;;;;;37.58;28.38;;;14.80;74.50;;;;;;5114424;28;20030;-70
2021/10/03 04:38:35;;;;;;;36.85;30.02;;;14.70;74.50;;;;;;5115007;28;20084;-70
2021/10/03 04:41:01;;;;;;;45.78;32.20;;;14.80;74.50;;;;;;5114609;28;20097;-71
2021/10/03 04:43:27;;;;;;;39.60;29.85;;;14.70;74.50;;;;;;5114564;28;20445;-71
2021/10/03 04:45:52;;;;;;;35.33;28.27;;;14.80;74.70;;;;;;5114470;28;20458;-70
2021/10/03 04:48:18;;;;;;;33.72;27.65;;;14.80;74.50;;;;;;5113128;28;20430;-70
2021/10/03 04:50:44;;;;;;;38.05;28.55;;;14.90;74.30;;;;;;5113390;28;20028;-69
2021/10/03 04:53:09;;;;;;;34.13;28.20;;;15.00;74.10;;;;;;5114176;27;20454;-70
2021/10/03 04:55:35;;;;;;;37.58;28.77;;;15.00;73.80;;;;;;5113126;28;20036;-71
2021/10/03 04:58:01;;;;;;;40.47;29.48;;;15.10;73.70;;;;;;5114347;27;20038;-72
2021/10/03 05:00:26;;;;;;;37.88;29.10;;;15.10;73.50;;;;;;5112380;27;20031;-69
2021/10/03 05:02:53;;;;;;;37.28;30.35;;;15.10;73.40;;;;;;5114839;28;20024;-70
2021/10/03 05:05:19;;;;;;;35.92;30.92;;;15.10;73.30;;;;;;5112275;28;20457;-69
2021/10/03 05:07:45;;;;;;;41.35;32.17;;;15.10;73.30;;;;;;5113370;28;20056;-71
2021/10/03 05:10:11;;;;;;;41.65;34.13;;;15.00;73.60;;;;;;5110929;28;20061;-70
2021/10/03 05:12:36;;;;;;;43.15;33.67;;;14.90;74.10;;;;;;5110898;28;20020;-70
2021/10/03 05:15:02;;;;;;;43.95;33.35;;;14.90;74.30;;;;;;5109798;28;20089;-70
2021/10/03 05:17:28;;;;;;;43.17;33.78;;;14.90;74.40;;;;;;5110497;28;20088;-70
2021/10/03 05:19:54;;;;;;;41.90;32.38;;;14.90;74.30;;;;;;5111447;27;20427;-69
2021/10/03 05:22:20;;;;;;;43.05;32.97;;;15.00;74.40;;;;;;5111950;28;20050;-70
2021/10/03 05:24:45;;;;;;;41.92;32.42;;;15.00;74.40;;;;;;5112102;27;20389;-68
2021/10/03 05:27:11;;;;;;;40.33;33.40;;;15.00;74.20;;;;;;5110774;28;20020;-70
2021/10/03 05:29:37;;;;;;;41.63;34.13;;;15.00;74.20;;;;;;5112039;27;20044;-70
2021/10/03 05:32:03;;;;;;;41.42;33.35;;;15.00;74.30;;;;;;5111589;28;20023;-70
2021/10/03 05:34:28;;;;;;;47.42;35.05;;;15.00;74.40;;;;;;5112139;27;20510;-71
2021/10/03 05:36:54;;;;;;;39.90;31.63;;;15.00;74.40;;;;;;5108303;28;20024;-67
2021/10/03 05:39:20;;;;;;;43.78;34.78;;;15.00;74.40;;;;;;5111809;27;20035;-70
2021/10/03 05:41:45;;;;;;;43.13;34.90;;;14.90;74.60;;;;;;5111581;28;20058;-71
2021/10/03 05:44:11;;;;;;;40.50;33.85;;;14.90;74.80;;;;;;5110063;27;20047;-72
2021/10/03 05:46:37;;;;;;;44.28;34.58;;;14.90;74.90;;;;;;5111981;28;20028;-73
2021/10/03 05:49:02;;;;;;;46.97;34.42;;;14.90;74.90;;;;;;5109918;28;20415;-70
2021/10/03 05:51:28;;;;;;;39.22;33.40;;;15.00;75.00;;;;;;5110007;28;20465;-71
2021/10/03 05:53:54;;;;;;;42.95;33.97;;;15.00;74.90;;;;;;5111461;28;20095;-70
2021/10/03 05:56:20;;;;;;;36.97;31.25;;;15.10;74.80;;;;;;5110059;28;20081;-70
2021/10/03 05:58:46;;;;;;;43.08;32.83;;;15.10;74.60;;;;;;5110558;28;20039;-70
2021/10/03 06:01:12;;;;;;;41.40;32.80;;;15.20;74.50;;;;;;5109535;27;20451;-70
2021/10/03 06:03:39;;;;;;;41.08;33.25;;;15.20;74.40;;;;;;5111879;28;20111;-70
2021/10/03 06:06:04;;;;;;;42.60;34.08;;;15.20;74.20;;;;;;5109475;28;20028;-72
2021/10/03 06:08:30;;;;;;;46.53;36.13;;;15.20;74.30;;;;;;5111467;28;20431;-70
2021/10/03 06:10:56;;;;;;;42.85;33.03;;;15.20;74.50;;;;;;5109647;28;20031;-70
2021/10/03 06:13:23;;;;;;;40.30;32.90;;;15.30;74.50;;;;;;5110923;28;20024;-70
2021/10/03 06:15:50;;;;;;;37.72;32.08;;;15.40;74.20;;;;;;5110130;28;20040;-70
2021/10/03 06:18:16;;;;;;;40.83;33.08;;;15.40;74.00;;;;;;5110897;28;20127;-71
2021/10/03 06:20:42;;;;;;;47.72;35.65;;;15.40;73.80;;;;;;5111435;27;20032;-72
2021/10/03 06:23:09;;;;;;;42.20;34.63;;;15.50;73.70;;;;;;5110595;28;20027;-68
2021/10/03 06:25:35;;;;;;;43.10;35.47;;;15.40;73.80;;;;;;5111179;27;20027;-71
2021/10/03 06:28:01;;;;;;;39.40;32.60;;;15.40;74.00;;;;;;5110567;28;20110;-71
2021/10/03 06:30:26;;;;;;;40.83;33.65;;;15.40;74.20;;;;;;5110422;27;20024;-72
2021/10/03 06:32:54;;;;;;;45.10;34.88;;;15.40;74.40;;;;;;5110081;27;20031;-70
2021/10/03 06:35:21;;;;;;;44.15;35.35;;;15.30;74.40;;;;;;5112052;27;20047;-70
2021/10/03 06:37:47;;;;;;;46.00;35.33;;;15.30;74.40;;;;;;5110988;28;20047;-71
2021/10/03 06:40:12;;;;;;;47.40;35.83;;;15.40;74.60;;;;;;5109771;28;20023;-72
2021/10/03 06:42:38;;;;;;;42.95;34.92;;;15.40;74.60;;;;;;5109167;28;20040;-70
2021/10/03 06:45:04;;;;;;;45.42;35.65;;;15.30;74.70;;;;;;5110137;28;20473;-68
2021/10/03 06:47:30;;;;;;;46.08;35.47;;;15.30;74.80;;;;;;5109133;28;20028;-70
2021/10/03 06:49:56;;;;;;;42.00;34.35;;;15.30;74.80;;;;;;5108939;28;20412;-67
2021/10/03 06:52:21;;;;;;;40.22;33.33;;;15.40;74.90;;;;;;5109108;28;20038;-68
2021/10/03 06:54:47;;;;;;;40.00;33.63;;;15.50;74.80;;;;;;5111062;28;20412;-69
2021/10/03 06:57:13;;;;;;;41.85;33.53;;;15.50;74.50;;;;;;5109411;27;20079;-71
2021/10/03 06:59:38;;;;;;;43.05;34.67;;;15.60;74.20;;;;;;5110686;28;20056;-70
2021/10/03 07:02:12;;;;;;;41.72;34.17;;;15.50;74.20;;;;;;5108576;28;20067;-69
2021/10/03 07:04:38;;;;;;;;;;;15.50;74.50;;;;;;5111351;28;20458;-70
2021/10/03 07:07:04;;;;;;;36.92;32.78;;;15.50;74.80;;;;;;5110076;27;19903;-68
2021/10/03 07:09:30;;;;;;;39.03;33.95;;;15.60;74.50;;;;;;5110502;28;20542;-68
2021/10/03 07:11:56;;;;;;;39.88;33.20;;;15.70;74.20;;;;;;5111553;27;20111;-68
2021/10/03 07:14:22;;;;;;;41.20;32.25;;;15.90;74.00;;;;;;5113248;28;20103;-70
2021/10/03 07:16:48;;;;;;;39.08;32.10;;;15.90;73.50;;;;;;5113598;28;20064;-72
2021/10/03 07:19:14;;;;;;;38.83;31.20;;;16.00;73.30;;;;;;5114102;28;20116;-70
2021/10/03 07:21:40;;;;;;;40.67;32.63;;;16.10;73.10;;;;;;5113521;27;20124;-70
2021/10/03 07:24:05;;;;;;;38.38;32.78;;;16.30;72.60;;;;;;5112743;28;20039;-71
2021/10/03 07:26:31;;;;;;;39.00;32.90;;;16.40;72.10;;;;;;5114611;28;20110;-71
2021/10/03 07:28:57;;;;;;;36.42;31.15;;;16.40;71.80;;;;;;5113747;27;20036;-70
2021/10/03 07:31:23;;;;;;;38.83;31.52;;;16.50;71.80;;;;;;5112763;28;20031;-70
2021/10/03 07:33:49;;;;;;;37.85;31.65;;;16.60;71.50;;;;;;5114242;27;20031;-69
2021/10/03 07:36:19;;;;;;;39.17;31.70;;;16.60;71.10;;;;;;5113936;28;20472;-70
2021/10/03 07:38:45;;;;;;;37.00;30.85;;;16.70;70.80;;;;;;5114583;27;20048;-72
2021/10/03 07:41:12;;;;;;;40.80;32.78;;;16.80;70.70;;;;;;5113136;28;20015;-66
2021/10/03 07:43:38;;;;;;;35.08;30.38;;;16.80;70.50;;;;;;5113576;27;20055;-71
2021/10/03 07:46:03;;;;;;;37.13;31.05;;;16.80;70.60;;;;;;5112529;28;20028;-70
2021/10/03 07:48:29;;;;;;;38.67;31.50;;;16.90;70.40;;;;;;5113722;27;20077;-70
2021/10/03 07:50:55;;;;;;;35.90;30.00;;;17.00;69.90;;;;;;5112320;28;20408;-71
2021/10/03 07:53:21;;;;;;;34.53;29.65;;;17.00;69.60;;;;;;5113449;27;20040;-72
2021/10/03 07:55:46;;;;;;;37.83;31.40;;;17.10;70.20;;;;;;5112868;28;20024;-71
2021/10/03 07:58:13;;;;;;;37.47;30.00;;;17.10;69.40;;;;;;5112538;27;20039;-69
2021/10/03 08:00:39;;;;;;;36.47;30.02;;;17.10;69.50;;;;;;5112995;28;20020;-71
2021/10/03 08:03:05;;;;;;;35.15;29.02;;;17.10;69.50;;;;;;5112699;27;20082;-69
2021/10/03 08:05:33;;;;;;;37.35;30.75;;;17.20;69.40;;;;;;5113006;28;20468;-71
2021/10/03 08:08:00;;;;;;;33.65;29.23;;;17.20;69.10;;;;;;5112599;27;20024;-71
2021/10/03 08:10:27;;;;;;;33.60;28.02;;;17.30;69.10;;;;;;5111741;28;20023;-73
2021/10/03 08:12:53;;;;;;;37.22;29.35;;;17.40;69.00;;;;;;5112155;27;20050;-71
2021/10/03 08:15:20;;;;;;;32.90;27.52;;;17.50;68.60;;;;;;5112883;28;20024;-71
2021/10/03 08:17:46;;;;;;;37.40;29.90;;;17.70;68.20;;;;;;5113838;28;20035;-72
2021/10/03 08:20:12;;;;;;;33.92;29.30;;;17.90;67.80;;;;;;5112807;27;20038;-71
2021/10/03 08:22:38;;;;;;;35.53;28.63;;;18.00;67.30;;;;;;5111023;28;20032;-71
2021/10/03 08:25:06;;;;;;;35.15;28.35;;;18.10;66.80;;;;;;5112062;27;20046;-73
2021/10/03 08:30:17;;;;;;;33.58;29.20;;;18.20;66.20;;;;;;5112918;27;20038;-68
2021/10/03 08:32:43;;;;;;;31.30;26.98;;;18.40;66.00;;;;;;5112162;28;20032;-70
2021/10/03 08:35:09;;;;;;;33.75;27.35;;;18.50;65.80;;;;;;5112480;27;20114;-72
2021/10/03 08:37:36;;;;;;;33.25;26.88;;;18.60;65.30;;;;;;5111650;28;20039;-71
2021/10/03 08:40:06;;;;;;;34.35;27.63;;;18.90;64.90;;;;;;5111721;27;20028;-71
2021/10/03 08:42:32;;;;;;;29.27;25.90;;;19.10;64.10;;;;;;5111463;28;20123;-72
2021/10/03 08:44:59;;;;;;;30.95;27.65;;;19.10;63.60;;;;;;5110477;28;20057;-71
2021/10/03 08:47:44;;;;;;;34.20;27.00;;;19.20;63.30;;;;;;5111072;28;20362;-72
2021/10/03 08:50:13;;;;;;;30.85;25.85;;;19.40;63.20;;;;;;5111813;27;20048;-69
2021/10/03 08:52:40;;;;;;;30.35;26.92;;;19.80;62.30;;;;;;5111891;27;20425;-69
2021/10/03 08:55:08;;;;;;;29.95;26.60;;;20.10;61.20;;;;;;5109976;28;20031;-71
2021/10/03 08:57:34;;;;;;;29.95;25.05;;;20.20;60.70;;;;;;5111281;28;20027;-69
2021/10/03 09:00:09;;;;;;;29.60;24.98;;;20.40;60.30;;;;;;5110769;27;20038;-69
2021/10/03 09:03:01;;;;;;;29.17;24.45;;;20.40;59.60;;;;;;5111743;27;20034;-70
2021/10/03 09:05:30;;;;;;;29.33;24.95;;;20.30;59.60;;;;;;5111753;27;20035;-68
2021/10/03 09:08:23;;;;;;;28.30;24.50;;;20.20;59.80;;;;;;5111409;28;20043;-69
2021/10/03 09:10:57;;;;;;;28.55;24.35;;;20.00;59.90;;;;;;5108183;28;20039;-65
2021/10/03 09:13:31;;;;;;;;;;;20.00;60.50;;;;;;5111789;28;20130;-69
2021/10/03 09:16:12;;;;;;;27.73;23.77;;;20.00;60.60;;;;;;5109548;28;20346;-68
2021/10/03 09:18:51;;;;;;;28.83;22.85;;;19.90;60.60;;;;;;5110271;28;20036;-69
2021/10/03 09:21:29;;;;;;;26.20;23.40;;;19.80;61.20;;;;;;5110707;28;20024;-68
2021/10/03 09:23:58;;;;;;;26.42;22.02;;;19.80;61.50;;;;;;5110953;28;20382;-68
2021/10/03 09:26:25;;;;;;;25.98;23.17;;;19.80;61.60;;;;;;5110933;27;20040;-69
2021/10/03 09:28:50;;;;;;;26.70;23.13;;;19.80;61.90;;;;;;5111327;28;20085;-66
2021/10/03 09:31:18;;;;;;;28.55;22.05;;;19.70;62.10;;;;;;5110568;28;20084;-69
2021/10/03 09:33:50;;;;;;;27.92;22.83;;;19.80;62.30;;;;;;5110417;28;20062;-68
2021/10/03 09:36:33;;;;;;;25.83;22.63;;;19.90;62.30;;;;;;5107894;28;20103;-72
2021/10/03 09:39:02;;;;;;;24.25;21.30;;;20.00;61.90;;;;;;5110355;28;20035;-69
2021/10/03 09:41:46;;;;;;;28.67;24.30;;;20.00;61.80;;;;;;5109911;27;20039;-68
2021/10/03 09:44:15;;;;;;;32.22;24.25;;;20.00;61.70;;;;;;5109961;28;20015;-72
2021/10/03 09:46:46;;;;;;;25.00;20.58;;;20.10;61.90;;;;;;5108690;28;20457;-71
2021/10/03 09:49:16;;;;;;;22.75;20.33;;;20.10;61.70;;;;;;5110668;28;20031;-71
2021/10/03 09:51:48;;;;;;;25.02;20.88;;;20.20;61.50;;;;;;5112752;28;20051;-71
2021/10/03 09:54:16;;;;;;;24.48;19.88;;;20.20;61.60;;;;;;5113551;28;20031;-70
2021/10/03 09:56:42;;;;;;;22.10;18.17;;;20.20;61.40;;;;;;5112485;28;20404;-69
2021/10/03 09:59:08;;;;;;;22.55;17.50;;;20.30;61.00;;;;;;5112840;28;20046;-70
2021/10/03 10:01:43;;;;;;;19.27;17.13;;;20.30;60.90;;;;;;5112633;28;20100;-71
2021/10/03 10:04:09;;;;;;;18.65;16.63;;;20.20;61.10;;;;;;5112942;28;20461;-71
2021/10/03 10:06:36;;;;;;;25.15;17.27;;;20.30;61.00;;;;;;5111367;28;20035;-69
2021/10/03 10:09:11;;;;;;;19.10;16.65;;;20.20;60.80;;;;;;5112853;27;20409;-71
2021/10/03 10:11:45;;;;;;;21.83;16.52;;;20.30;60.80;;;;;;5111273;28;20079;-70
2021/10/03 10:14:12;;;;;;;20.75;17.55;;;20.40;60.60;;;;;;5112999;28;20110;-71
2021/10/03 10:16:52;;;;;;;18.13;15.68;;;20.50;60.60;;;;;;5112242;28;20030;-71
2021/10/03 10:19:29;;;;;;;18.45;15.57;;;20.70;60.40;;;;;;5112702;28;20428;-70
2021/10/03 10:22:33;;;;;;;19.50;15.75;;;20.70;60.10;;;;;;5108781;28;20105;-73
2021/10/03 10:25:04;;;;;;;18.65;15.02;;;20.80;59.80;;;;;;5090529;28;20036;-73
2021/10/03 10:27:29;;;;;;;17.55;15.02;;;20.80;59.30;;;;;;5110793;28;20036;-73
2021/10/03 10:30:11;;;;;;;17.33;14.30;;;20.80;59.30;;;;;;5111468;28;20024;-73
2021/10/03 10:32:55;;;;;;;17.95;14.38;;;20.80;59.60;;;;;;5112668;28;20051;-71
2021/10/03 10:35:24;;;;;;;;;;;21.00;59.40;;;;;;5111212;28;20397;-77
2021/10/03 10:37:50;;;;;;;19.92;15.60;;;21.10;59.30;;;;;;5112966;28;20288;-76
2021/10/03 10:40:36;;;;;;;17.73;13.00;;;21.20;58.60;;;;;;5113301;28;20457;-70
2021/10/03 10:43:02;;;;;;;15.20;12.90;;;21.40;58.00;;;;;;5093150;28;20066;-68
2021/10/03 10:45:28;;;;;;;16.60;11.48;;;21.50;57.80;;;;;;5109673;28;20035;-67
2021/10/03 10:48:13;;;;;;;19.45;11.75;;;21.50;57.30;;;;;;5111350;28;20080;-67
2021/10/03 10:51:00;;;;;;;20.88;12.70;;;21.50;57.10;;;;;;5110481;28;20028;-67
2021/10/03 10:53:38;;;;;;;13.90;10.98;;;21.70;57.40;;;;;;5111113;28;20082;-67
2021/10/03 10:56:15;;;;;;;13.52;11.75;;;21.80;56.80;;;;;;5110519;28;20035;-65
2021/10/03 10:58:50;;;;;;;16.33;11.45;;;21.80;56.60;;;;;;5111837;28;20074;-66
2021/10/03 11:01:40;;;;;;;16.20;11.10;;;21.90;56.20;;;;;;5110045;28;20028;-65
2021/10/03 11:04:24;;;;;;;12.88;11.20;;;22.00;56.30;;;;;;5110273;28;20541;-66
2021/10/03 11:06:53;;;;;;;16.63;12.90;;;22.10;55.90;;;;;;5112063;28;20012;-68
2021/10/03 11:10:01;;;;;;;14.65;10.77;;;22.30;55.90;;;;;;5111287;28;20081;-67
2021/10/03 11:12:31;;;;;;;12.23;9.93;;;22.30;55.10;;;;;;5109019;28;20027;-70
2021/10/03 11:15:22;;;;;;;13.45;9.10;;;22.40;55.20;;;;;;5110139;28;20059;-71
2021/10/03 11:18:05;;;;;;;13.15;9.45;;;22.50;54.50;;;;;;5093890;28;20031;-69
2021/10/03 11:20:46;;;;;;;11.20;8.85;;;22.60;54.10;;;;;;5109464;28;20318;-69
2021/10/03 11:23:20;;;;;;;14.55;8.68;;;22.70;54.20;;;;;;5112500;28;20059;-73
2021/10/03 11:25:46;;;;;;;12.25;9.00;;;22.80;52.90;;;;;;5110182;28;20028;-70
2021/10/03 11:28:14;;;;;;;11.90;7.97;;;22.80;52.70;;;;;;5111478;28;20032;-70
2021/10/03 11:30:53;;;;;;;14.18;8.52;;;22.80;51.60;;;;;;5111432;28;20023;-69
2021/10/03 11:33:19;;;;;;;11.73;8.05;;;22.70;52.30;;;;;;5108783;28;20024;-70
2021/10/03 11:35:45;;;;;;;10.45;8.88;;;22.80;52.00;;;;;;5109254;28;20107;-70
2021/10/03 11:38:10;;;;;;;12.50;8.57;;;22.90;52.00;;;;;;5110256;28;20036;-69
2021/10/03 11:40:36;;;;;;;11.77;8.73;;;23.00;51.70;;;;;;5110035;28;20035;-69
2021/10/03 11:43:02;;;;;;;9.52;7.40;;;23.10;51.50;;;;;;5109885;28;20052;-69
2021/10/03 11:45:29;;;;;;;12.45;8.18;;;23.20;51.00;;;;;;5108644;28;20112;-70
2021/10/03 11:47:58;;;;;;;11.98;8.38;;;23.20;51.20;;;;;;5109041;28;20603;-73
2021/10/03 11:50:31;;;;;;;8.85;7.70;;;23.30;51.20;;;;;;5091390;28;20031;-71
2021/10/03 11:53:10;;;;;;;11.48;8.40;;;23.30;50.60;;;;;;5110395;28;20077;-71
2021/10/03 11:55:38;;;;;;;12.05;8.50;;;23.30;50.30;;;;;;5107811;28;20474;-70
2021/10/03 11:58:07;;;;;;;9.07;7.10;;;23.30;50.60;;;;;;5111943;28;20133;-69
2021/10/03 12:00:46;;;;;;;12.88;7.88;;;23.40;50.30;;;;;;5112041;28;20360;-70
2021/10/03 12:03:15;;;;;;;8.73;7.60;;;23.30;50.40;;;;;;5112877;28;20064;-75
2021/10/03 12:05:41;;;;;;;9.02;7.40;;;23.40;50.20;;;;;;5114625;28;20150;-76
2021/10/03 12:08:19;;;;;;;9.05;7.53;;;23.40;50.30;;;;;;5115288;28;20058;-78
2021/10/03 12:10:47;;;;;;;11.25;7.10;;;23.50;50.30;;;;;;5114411;28;20023;-77
2021/10/03 12:13:14;;;;;;;11.85;7.47;;;23.50;50.30;;;;;;5112520;28;20115;-77
2021/10/03 12:15:45;;;;;;;10.52;7.82;;;23.60;50.80;;;;;;5112722;28;20199;-74
2021/10/03 12:18:33;;;;;;;8.68;7.45;;;23.60;49.80;;;;;;5112613;28;20122;-65
2021/10/03 12:21:08;;;;;;;9.73;7.20;;;23.60;49.80;;;;;;5112013;28;20075;-71
2021/10/03 12:24:11;;;;;;;9.32;7.45;;;23.60;49.80;;;;;;5112934;28;20566;-77
2021/10/03 12:26:37;;;;;;;10.93;7.15;;;23.80;49.50;;;;;;5112960;28;20088;-76
2021/10/03 12:29:09;;;;;;;12.18;7.45;;;23.80;49.60;;;;;;5113942;28;20027;-77
2021/10/03 12:31:51;;;;;;;9.38;7.15;;;23.90;49.40;;;;;;5111656;28;20481;-76
2021/10/03 12:34:17;;;;;;;10.90;7.47;;;24.00;49.40;;;;;;5111496;28;20483;-75
2021/10/03 12:36:56;;;;;;;10.38;6.90;;;24.00;49.30;;;;;;5108998;28;20028;-78
2021/10/03 12:39:23;;;;;;;7.70;6.90;;;24.10;49.20;;;;;;5112617;28;20042;-75
2021/10/03 12:41:53;;;;;;;11.30;7.25;;;24.20;48.90;;;;;;5111411;28;20110;-76
2021/10/03 12:44:22;;;;;;;11.15;7.05;;;24.30;48.70;;;;;;5113241;28;20035;-77